Time;durP1;ratioP1;P1;durP2;ratioP2;P2;SDS_P1;SDS_P2;PMS_P1;PMS_P2;Temp;Humidity;BMP_temperature;BMP_pressure;BME280_temperature;BME280_humidity;BME280_pressure;Samples;Min_cycle;Max_cycle;Signal;HPM_P1;HPM_P2
2022/12/12 00:00:13;;;;;;;0.20;0.20;;;;;;;-1.99;100.00;95803.91;5035435;28;20038;-74
2022/12/12 00:03:02;;;;;;;0.20;0.20;;;;;;;-1.80;100.00;95800.66;5035399;28;20149;-75
2022/12/12 00:05:51;;;;;;;0.20;0.20;;;;;;;-1.90;100.00;95805.41;5026242;28;20514;-74
2022/12/12 00:08:39;;;;;;;0.20;0.20;;;;;;;-1.86;100.00;95806.66;5025870;28;20055;-74
2022/12/12 00:11:26;;;;;;;0.20;0.20;;;;;;;-1.82;100.00;95805.28;5037303;28;20044;-75
2022/12/12 00:14:12;;;;;;;0.20;0.20;;;;;;;-1.80;100.00;95805.09;5036010;28;20036;-75
2022/12/12 00:16:58;;;;;;;0.13;0.13;;;;;;;-1.94;100.00;95809.41;5033398;28;20618;-73
2022/12/12 00:19:44;;;;;;;0.20;0.20;;;;;;;-2.13;100.00;95813.44;5022979;28;20270;-74
2022/12/12 00:22:30;;;;;;;0.20;0.20;;;;;;;-2.10;100.00;95817.47;5032305;28;20032;-75
2022/12/12 00:25:16;;;;;;;0.20;0.20;;;;;;;-1.89;100.00;95814.09;5036867;28;20075;-73
2022/12/12 00:28:03;;;;;;;0.20;0.20;;;;;;;-1.79;100.00;95809.34;5034784;28;20055;-75
2022/12/12 00:30:50;;;;;;;0.20;0.20;;;;;;;-1.77;100.00;95813.41;5036114;28;20041;-75
2022/12/12 00:33:36;;;;;;;0.20;0.20;;;;;;;-1.70;100.00;95816.09;5037471;28;20082;-74
2022/12/12 00:36:25;;;;;;;0.10;0.10;;;;;;;-1.65;100.00;95823.41;5039451;28;20522;-73
2022/12/12 00:39:11;;;;;;;0.20;0.20;;;;;;;-1.55;100.00;95805.53;5036353;28;20040;-71
2022/12/12 00:41:57;;;;;;;0.10;0.10;;;;;;;-1.46;100.00;95817.53;5034012;28;20128;-73
2022/12/12 00:44:43;;;;;;;0.20;0.20;;;;;;;-1.42;100.00;95822.19;5034872;28;20052;-75
2022/12/12 00:47:29;;;;;;;0.20;0.20;;;;;;;-1.37;100.00;95819.00;5038657;28;20140;-75
2022/12/12 00:50:15;;;;;;;0.20;0.20;;;;;;;-1.43;100.00;95822.38;5035323;28;20105;-74
2022/12/12 00:53:01;;;;;;;0.20;0.20;;;;;;;-1.49;100.00;95818.69;5019501;28;20483;-75
2022/12/12 00:55:55;;;;;;;0.20;0.20;;;;;;;-1.47;100.00;95823.78;5036574;28;20041;-74
2022/12/12 00:58:40;;;;;;;0.20;0.20;;;;;;;-1.49;100.00;95823.13;5035762;28;20888;-73
2022/12/12 01:01:29;;;;;;;0.20;0.20;;;;;;;-1.61;100.00;95830.72;5033855;28;20044;-73
2022/12/12 01:04:15;;;;;;;0.10;0.10;;;;;;;-1.74;100.00;95831.38;5033597;28;20045;-73
2022/12/12 01:07:01;;;;;;;0.20;0.20;;;;;;;-1.68;100.00;95824.59;5033173;28;20286;-73
2022/12/12 01:09:47;;;;;;;0.20;0.20;;;;;;;-1.77;100.00;95825.72;5033612;28;20052;-73
2022/12/12 01:12:33;;;;;;;0.20;0.20;;;;;;;-1.75;100.00;95828.97;5032152;28;20037;-73
2022/12/12 01:15:19;;;;;;;0.20;0.20;;;;;;;-1.73;100.00;95832.19;5022583;28;20040;-73
2022/12/12 01:18:05;;;;;;;0.20;0.20;;;;;;;-1.75;100.00;95826.34;5031644;28;20643;-73
2022/12/12 01:20:51;;;;;;;0.20;0.20;;;;;;;-1.89;100.00;95828.00;5031591;28;20696;-74
2022/12/12 01:23:40;;;;;;;0.20;0.20;;;;;;;-1.88;100.00;95829.63;5031245;28;20259;-74
2022/12/12 01:26:26;;;;;;;0.20;0.20;;;;;;;-1.85;100.00;95828.47;5036138;28;20041;-75
2022/12/12 01:29:14;;;;;;;0.20;0.20;;;;;;;-1.84;100.00;95830.91;5031642;28;20450;-74
2022/12/12 01:32:00;;;;;;;0.30;0.30;;;;;;;-1.93;100.00;95825.97;5032294;28;20091;-72
2022/12/12 01:34:46;;;;;;;0.20;0.20;;;;;;;-2.08;100.00;95820.75;5030806;28;20681;-75
2022/12/12 01:37:36;;;;;;;0.20;0.20;;;;;;;-2.01;100.00;95824.25;5035347;28;20147;-74
2022/12/12 01:40:24;;;;;;;0.20;0.20;;;;;;;-1.94;100.00;95830.41;5033909;28;20076;-74
2022/12/12 01:43:12;;;;;;;0.20;0.20;;;;;;;-1.90;100.00;95825.56;5028888;28;21043;-74
2022/12/12 01:45:58;;;;;;;0.20;0.20;;;;;;;-1.81;100.00;95837.56;5018508;28;20674;-73
2022/12/12 01:48:50;;;;;;;0.20;0.20;;;;;;;-1.74;100.00;95827.97;5030646;28;20156;-75
2022/12/12 01:51:36;;;;;;;;;;;;;;;-1.64;100.00;95825.00;5034114;28;20083;-72
2022/12/12 01:54:30;;;;;;;0.20;0.20;;;;;;;-1.72;100.00;95833.81;5030563;28;20522;-72
2022/12/12 01:57:38;;;;;;;0.20;0.20;;;;;;;-1.80;100.00;95839.19;5017412;28;20048;-73
2022/12/12 02:00:24;;;;;;;0.20;0.20;;;;;;;-1.79;100.00;95843.44;5032259;28;20040;-75
2022/12/12 02:03:10;;;;;;;0.20;0.20;;;;;;;-1.71;100.00;95836.28;5030081;28;20052;-72
2022/12/12 02:06:02;;;;;;;0.20;0.20;;;;;;;-1.56;100.00;95843.25;5029376;28;20685;-74
2022/12/12 02:08:51;;;;;;;0.20;0.20;;;;;;;-1.69;100.00;95833.47;5029882;28;20579;-74
2022/12/12 02:11:44;;;;;;;0.20;0.20;;;;;;;-1.67;100.00;95839.34;5033726;28;20590;-75
2022/12/12 02:14:37;;;;;;;0.20;0.20;;;;;;;-1.58;100.00;95840.81;5003106;28;20075;-74
2022/12/12 02:17:46;;;;;;;0.20;0.20;;;;;;;-1.52;100.00;95845.34;5031773;28;20040;-75
2022/12/12 02:20:53;;;;;;;0.20;0.20;;;;;;;-1.42;100.00;95842.38;5032587;28;20561;-75
2022/12/12 02:23:38;;;;;;;0.20;0.20;;;;;;;-1.35;100.00;95848.50;5034373;28;20772;-74
2022/12/12 02:27:15;;;;;;;0.20;0.20;;;;;;;-1.35;100.00;95845.88;5030515;28;20041;-74
2022/12/12 02:30:12;;;;;;;0.20;0.20;;;;;;;-1.48;100.00;95843.13;5011837;28;20387;-75
2022/12/12 02:33:06;;;;;;;0.20;0.20;;;;;;;-1.44;100.00;95849.63;5021590;28;20045;-75
2022/12/12 02:35:51;;;;;;;0.20;0.20;;;;;;;-1.50;100.00;95847.75;5031200;28;20560;-74
2022/12/12 02:39:06;;;;;;;0.20;0.20;;;;;;;-1.48;100.00;95854.47;5032159;28;20381;-74
2022/12/12 02:41:58;;;;;;;0.20;0.20;;;;;;;-1.44;100.00;95855.69;5016112;28;20047;-73
2022/12/12 02:44:55;;;;;;;0.28;0.28;;;;;;;-1.47;100.00;95852.66;5023270;28;20041;-75
2022/12/12 02:47:56;;;;;;;0.20;0.20;;;;;;;-1.38;100.00;95845.47;5018686;28;20107;-75
2022/12/12 02:50:43;;;;;;;;;;;;;;;-1.41;100.00;95850.06;5031203;28;20041;-75
2022/12/12 02:53:29;;;;;;;0.20;0.20;;;;;;;-1.47;100.00;95835.09;5039995;28;20402;-73
2022/12/12 02:56:46;;;;;;;0.30;0.30;;;;;;;-1.41;100.00;95855.31;5032645;28;20156;-75
2022/12/12 02:59:36;;;;;;;0.20;0.20;;;;;;;-1.51;100.00;95857.44;5030742;28;20032;-75
2022/12/12 03:02:34;;;;;;;0.20;0.20;;;;;;;-1.47;100.00;95865.78;5031166;28;20501;-75
2022/12/12 03:09:14;;;;;;;0.20;0.20;;;;;;;-1.61;100.00;95866.63;5032246;28;20053;-75
2022/12/12 03:12:13;;;;;;;0.20;0.20;;;;;;;-1.51;100.00;95862.69;5032010;28;20048;-75
2022/12/12 03:15:02;;;;;;;0.20;0.20;;;;;;;-1.58;100.00;95856.56;5030337;28;20520;-75
2022/12/12 03:17:58;;;;;;;0.20;0.20;;;;;;;-1.71;100.00;95872.19;5031450;28;20381;-75
2022/12/12 03:21:14;;;;;;;0.20;0.20;;;;;;;-1.58;100.00;95872.31;5030881;28;20436;-75
2022/12/12 03:24:07;;;;;;;0.20;0.20;;;;;;;-1.58;100.00;95866.25;5014379;28;20033;-72
2022/12/12 03:26:58;;;;;;;0.15;0.15;;;;;;;-1.61;100.00;95861.41;5031219;28;20037;-75
2022/12/12 03:29:55;;;;;;;0.20;0.20;;;;;;;-1.69;100.00;95870.19;5021552;28;20059;-75
2022/12/12 03:32:47;;;;;;;0.20;0.20;;;;;;;-1.75;100.00;95849.94;5033635;28;20049;-73
2022/12/12 03:35:39;;;;;;;0.20;0.20;;;;;;;-1.68;100.00;95856.06;5034832;28;20041;-74
2022/12/12 03:38:34;;;;;;;0.20;0.20;;;;;;;-1.66;100.00;95855.88;5035671;28;20100;-74
2022/12/12 03:41:23;;;;;;;0.20;0.20;;;;;;;-1.63;100.00;95858.97;5033553;28;20466;-74
2022/12/12 03:44:13;;;;;;;0.20;0.20;;;;;;;-1.60;100.00;95865.63;5033767;28;20826;-73
2022/12/12 03:47:09;;;;;;;0.20;0.20;;;;;;;-1.59;100.00;95857.56;5034483;28;20048;-73
2022/12/12 03:50:03;;;;;;;0.20;0.20;;;;;;;-1.59;100.00;95854.94;5023656;28;20047;-72
2022/12/12 03:53:01;;;;;;;0.20;0.20;;;;;;;-1.62;100.00;95860.59;5036356;28;20397;-74
2022/12/12 03:56:02;;;;;;;0.20;0.20;;;;;;;-1.74;100.00;95851.56;5032488;28;20262;-74
2022/12/12 03:59:03;;;;;;;0.20;0.20;;;;;;;-1.67;100.00;95860.31;5032142;28;20282;-74
2022/12/12 04:01:54;;;;;;;0.20;0.20;;;;;;;-1.59;100.00;95870.69;5025176;28;20045;-74
2022/12/12 04:05:05;;;;;;;0.20;0.20;;;;;;;-1.70;100.00;95853.66;5032660;28;20048;-74
2022/12/12 04:07:53;;;;;;;0.20;0.20;;;;;;;-1.71;100.00;95862.53;5025727;28;20040;-72
2022/12/12 04:14:15;;;;;;;0.20;0.20;;;;;;;-1.57;100.00;95870.50;5033573;28;20044;-73
2022/12/12 04:17:05;;;;;;;0.20;0.20;;;;;;;-1.57;100.00;95866.06;5032197;28;20048;-71
2022/12/12 04:23:55;;;;;;;0.20;0.20;;;;;;;-1.63;100.00;95874.72;5032809;28;20260;-73
2022/12/12 04:26:47;;;;;;;0.20;0.20;;;;;;;-1.84;100.00;95877.28;5015711;28;20048;-72
2022/12/12 04:29:44;;;;;;;0.20;0.20;;;;;;;-1.78;100.00;95880.00;5032819;28;20060;-72
2022/12/12 04:32:46;;;;;;;0.10;0.10;;;;;;;-1.84;100.00;95874.66;5033172;28;20540;-73
2022/12/12 04:35:37;;;;;;;0.20;0.20;;;;;;;-1.71;100.00;95883.50;5034588;28;20094;-73
2022/12/12 04:38:24;;;;;;;0.22;0.22;;;;;;;-1.61;100.00;95890.25;5024808;28;20059;-74
2022/12/12 04:41:13;;;;;;;0.20;0.20;;;;;;;-1.57;100.00;95891.50;5034667;28;20540;-74
2022/12/12 04:44:02;;;;;;;0.20;0.20;;;;;;;-1.73;100.00;95889.91;5032540;28;20257;-74
2022/12/12 04:46:51;;;;;;;0.20;0.20;;;;;;;-1.69;100.00;95878.06;5035394;28;20056;-73
2022/12/12 04:49:41;;;;;;;0.20;0.20;;;;;;;-1.72;100.00;95876.59;5033133;28;20033;-71
2022/12/12 04:52:32;;;;;;;0.20;0.20;;;;;;;-1.96;100.00;95879.56;5033168;28;20106;-73
2022/12/12 04:55:24;;;;;;;0.20;0.20;;;;;;;-2.10;100.00;95868.13;5021615;28;21359;-72
2022/12/12 04:58:10;;;;;;;0.20;0.20;;;;;;;-2.03;100.00;95879.50;5033434;28;20062;-74
2022/12/12 05:01:01;;;;;;;0.20;0.20;;;;;;;-1.94;100.00;95882.03;5032372;28;20072;-72
2022/12/12 05:03:56;;;;;;;0.20;0.20;;;;;;;-1.94;100.00;95885.47;5020799;28;20044;-71
2022/12/12 05:06:48;;;;;;;0.20;0.20;;;;;;;-1.93;100.00;95881.03;5035763;28;20102;-71
2022/12/12 05:09:36;;;;;;;0.20;0.20;;;;;;;-1.84;100.00;95885.16;5035351;28;20083;-73
2022/12/12 05:12:22;;;;;;;0.20;0.20;;;;;;;-2.07;100.00;95885.31;5035372;28;20407;-72
2022/12/12 05:15:08;;;;;;;0.22;0.22;;;;;;;-2.10;100.00;95888.28;5033027;28;20048;-73
2022/12/12 05:18:00;;;;;;;0.20;0.20;;;;;;;-2.16;100.00;95894.28;5033288;28;20622;-72
2022/12/12 05:20:46;;;;;;;0.20;0.20;;;;;;;-2.00;100.00;95886.19;5033508;28;20128;-74
2022/12/12 05:23:32;;;;;;;0.20;0.20;;;;;;;-2.00;100.00;95894.88;5032819;28;20045;-74
2022/12/12 05:26:24;;;;;;;0.20;0.20;;;;;;;-1.90;100.00;95899.81;5035118;28;20530;-73
2022/12/12 05:29:10;;;;;;;0.20;0.20;;;;;;;-1.89;100.00;95903.25;5034063;28;20616;-74
2022/12/12 05:31:56;;;;;;;0.20;0.20;;;;;;;-1.85;100.00;95897.47;5032910;28;20071;-71
2022/12/12 05:34:42;;;;;;;0.20;0.20;;;;;;;-1.77;100.00;95899.97;5035158;28;20044;-73
2022/12/12 05:37:28;;;;;;;0.28;0.28;;;;;;;-1.69;100.00;95901.69;5034787;28;20559;-73
2022/12/12 05:40:14;;;;;;;0.20;0.20;;;;;;;-1.72;100.00;95904.66;5033426;28;20119;-73
2022/12/12 05:43:00;;;;;;;0.20;0.20;;;;;;;-1.74;100.00;95898.78;5031277;28;20049;-74
2022/12/12 05:45:45;;;;;;;0.20;0.20;;;;;;;-1.75;100.00;95897.16;5034422;28;20500;-73
2022/12/12 05:48:31;;;;;;;0.20;0.20;;;;;;;-1.75;100.00;95899.78;5033143;28;20045;-71
2022/12/12 05:51:19;;;;;;;0.20;0.20;;;;;;;-1.74;100.00;95901.41;5034862;28;20140;-74
2022/12/12 05:54:05;;;;;;;0.22;0.22;;;;;;;-1.74;100.00;95904.03;5031844;28;20505;-72
2022/12/12 05:56:51;;;;;;;0.20;0.20;;;;;;;-1.74;100.00;95899.59;5033476;28;20033;-74
2022/12/12 05:59:37;;;;;;;0.20;0.20;;;;;;;-1.80;100.00;95896.91;5032435;28;20040;-73
2022/12/12 06:02:23;;;;;;;0.20;0.20;;;;;;;-1.85;100.00;95907.16;5033746;28;20412;-73
2022/12/12 06:05:08;;;;;;;0.20;0.20;;;;;;;-1.85;100.00;95909.78;5033182;28;20083;-73
2022/12/12 06:07:55;;;;;;;0.20;0.20;;;;;;;-1.91;100.00;95902.63;5032577;28;20043;-73
2022/12/12 06:10:41;;;;;;;0.20;0.20;;;;;;;-1.92;100.00;95907.06;5034419;28;20040;-74
2022/12/12 06:13:26;;;;;;;0.20;0.20;;;;;;;-1.85;100.00;95910.59;5032646;28;20223;-73
2022/12/12 06:16:16;;;;;;;0.20;0.20;;;;;;;-1.82;100.00;95925.94;5032971;28;20532;-73
2022/12/12 06:19:02;;;;;;;0.20;0.20;;;;;;;-1.84;100.00;95919.25;5035319;28;20756;-74
2022/12/12 06:21:48;;;;;;;0.20;0.20;;;;;;;-1.82;100.00;95923.31;5036645;28;20456;-71
2022/12/12 06:24:34;;;;;;;0.20;0.20;;;;;;;-1.83;100.00;95926.94;5034790;28;20049;-75
2022/12/12 06:27:20;;;;;;;0.20;0.20;;;;;;;-1.97;100.00;95925.97;5033757;28;20044;-75
2022/12/12 06:30:07;;;;;;;0.20;0.20;;;;;;;-1.91;100.00;95926.25;5020937;28;20045;-72
2022/12/12 06:32:53;;;;;;;0.20;0.20;;;;;;;-1.89;100.00;95927.66;5019097;28;20560;-72
2022/12/12 06:35:39;;;;;;;0.20;0.20;;;;;;;-1.86;100.00;95929.13;5033354;28;20049;-72
2022/12/12 06:38:25;;;;;;;0.20;0.20;;;;;;;-1.93;100.00;95912.50;5031358;28;20040;-73
2022/12/12 06:41:13;;;;;;;0.20;0.20;;;;;;;-2.04;100.00;95930.31;5035038;28;20052;-73
2022/12/12 06:44:03;;;;;;;0.20;0.20;;;;;;;-2.26;100.00;95928.59;5031951;28;20051;-73
2022/12/12 06:46:49;;;;;;;0.20;0.20;;;;;;;-2.28;100.00;95923.56;5033004;28;20043;-73
2022/12/12 06:49:35;;;;;;;0.20;0.20;;;;;;;-2.14;100.00;95921.91;5016107;28;20397;-73
2022/12/12 06:52:21;;;;;;;0.20;0.20;;;;;;;-2.01;100.00;95929.97;5028171;28;20105;-71
2022/12/12 06:55:07;;;;;;;0.20;0.20;;;;;;;-1.98;100.00;95937.44;5021812;28;20761;-72
2022/12/12 06:57:53;;;;;;;0.17;0.17;;;;;;;-1.99;100.00;95938.44;5032819;28;20860;-72
2022/12/12 07:00:40;;;;;;;0.20;0.20;;;;;;;-1.90;100.00;95933.09;5016799;28;20242;-74
2022/12/12 07:03:26;;;;;;;0.20;0.20;;;;;;;-1.87;100.00;95938.78;5029010;28;20517;-73
2022/12/12 07:06:12;;;;;;;0.20;0.20;;;;;;;-1.87;100.00;95940.59;5031118;28;20556;-74
2022/12/12 07:08:59;;;;;;;0.20;0.20;;;;;;;-1.95;100.00;95944.13;5031707;28;20047;-72
2022/12/12 07:11:45;;;;;;;0.20;0.20;;;;;;;-1.96;100.00;95945.94;5033268;28;20071;-74
2022/12/12 07:14:31;;;;;;;0.20;0.20;;;;;;;-1.94;100.00;95950.22;5033008;28;20426;-75
2022/12/12 07:17:16;;;;;;;0.20;0.20;;;;;;;-1.93;100.00;95947.41;5019614;28;20470;-74
2022/12/12 07:20:04;;;;;;;0.20;0.20;;;;;;;-1.88;100.00;95957.34;5033662;28;20451;-75
2022/12/12 07:22:50;;;;;;;0.20;0.20;;;;;;;-2.00;100.00;95963.06;5033106;28;20049;-73
2022/12/12 07:25:38;;;;;;;0.20;0.20;;;;;;;-2.01;100.00;95956.19;5033742;28;20496;-74
2022/12/12 07:28:24;;;;;;;0.20;0.20;;;;;;;-1.95;100.00;95965.13;5025165;28;20045;-75
2022/12/12 07:31:12;;;;;;;0.10;0.10;;;;;;;-1.90;100.00;95965.38;5032246;28;20434;-74
2022/12/12 07:34:02;;;;;;;0.20;0.20;;;;;;;-1.98;100.00;95966.31;5032438;28;20413;-74
2022/12/12 07:36:48;;;;;;;0.20;0.20;;;;;;;-1.92;100.00;95970.00;5021563;28;20540;-74
2022/12/12 07:39:34;;;;;;;0.20;0.20;;;;;;;-1.96;100.00;95971.34;5019407;28;20044;-74
2022/12/12 07:42:19;;;;;;;0.20;0.20;;;;;;;-1.99;100.00;95953.38;5033606;28;20060;-75
2022/12/12 07:45:06;;;;;;;0.20;0.20;;;;;;;-2.01;100.00;95969.28;5032443;28;20076;-75
2022/12/12 07:47:52;;;;;;;0.20;0.20;;;;;;;-2.09;100.00;95976.44;5021081;28;20037;-74
2022/12/12 07:50:38;;;;;;;0.20;0.20;;;;;;;-2.03;100.00;95967.84;5031930;28;20041;-73
2022/12/12 07:53:24;;;;;;;0.20;0.20;;;;;;;-1.90;100.00;95967.19;5019207;28;20053;-73
2022/12/12 07:56:15;;;;;;;0.20;0.20;;;;;;;-1.89;100.00;95974.06;5035354;28;20045;-74
2022/12/12 07:59:01;;;;;;;0.20;0.20;;;;;;;-1.93;100.00;95964.97;5031753;28;20464;-73
2022/12/12 08:01:47;;;;;;;0.20;0.20;;;;;;;-1.95;100.00;95970.34;5031121;28;20040;-74
2022/12/12 08:04:32;;;;;;;0.20;0.20;;;;;;;-1.96;100.00;95972.16;5032947;28;20049;-73
2022/12/12 08:07:18;;;;;;;0.20;0.20;;;;;;;-1.91;100.00;95976.06;5033850;28;20040;-74
2022/12/12 08:10:05;;;;;;;0.20;0.20;;;;;;;-1.93;100.00;95978.88;5033260;28;20049;-75
2022/12/12 08:12:51;;;;;;;0.20;0.20;;;;;;;-1.89;100.00;95976.69;5032166;28;20044;-73
2022/12/12 08:15:36;;;;;;;0.20;0.20;;;;;;;-1.99;100.00;95975.16;5037261;28;20044;-75
2022/12/12 08:18:22;;;;;;;0.20;0.20;;;;;;;-1.88;100.00;95986.19;5019565;28;20548;-75
2022/12/12 08:21:13;;;;;;;0.20;0.20;;;;;;;-1.72;100.00;95986.78;5035699;28;20587;-75
2022/12/12 08:24:01;;;;;;;0.20;0.20;;;;;;;-1.57;100.00;95985.97;5036727;28;20037;-73
2022/12/12 08:26:48;;;;;;;0.10;0.10;;;;;;;-1.52;100.00;95986.22;5035915;28;20041;-75
2022/12/12 08:29:35;;;;;;;0.20;0.20;;;;;;;-1.45;100.00;95992.38;5035230;28;20808;-74
2022/12/12 08:32:21;;;;;;;0.20;0.20;;;;;;;-1.48;100.00;95985.69;5034896;28;20045;-73
2022/12/12 08:35:07;;;;;;;0.20;0.20;;;;;;;-1.51;100.00;95993.91;5033069;28;20845;-74
2022/12/12 08:37:53;;;;;;;0.10;0.10;;;;;;;-1.50;100.00;95992.91;5030807;28;20540;-74
2022/12/12 08:40:40;;;;;;;0.20;0.20;;;;;;;-1.72;100.00;95996.47;5034427;28;20361;-73
2022/12/12 08:43:26;;;;;;;0.20;0.20;;;;;;;-1.81;100.00;96005.44;5033243;28;20051;-76
2022/12/12 08:46:13;;;;;;;0.20;0.20;;;;;;;-1.89;100.00;96001.09;5029811;28;20053;-75
2022/12/12 08:48:59;;;;;;;0.20;0.20;;;;;;;-2.12;100.00;95998.56;5037081;28;20295;-75
2022/12/12 08:51:45;;;;;;;0.20;0.20;;;;;;;-2.00;100.00;96010.25;5032654;28;20492;-75
2022/12/12 08:54:31;;;;;;;0.20;0.20;;;;;;;-2.10;100.00;96012.34;5022688;28;20048;-73
2022/12/12 08:57:17;;;;;;;0.20;0.20;;;;;;;-2.12;100.00;96016.13;5038236;28;20118;-74
2022/12/12 09:00:03;;;;;;;0.20;0.20;;;;;;;-2.00;100.00;96015.50;5036791;28;20037;-74
2022/12/12 09:02:49;;;;;;;0.20;0.20;;;;;;;-2.03;100.00;96009.78;5013620;28;20591;-75
2022/12/12 09:05:35;;;;;;;0.20;0.20;;;;;;;-1.70;100.00;96016.31;5011492;28;20049;-74
2022/12/12 09:08:23;;;;;;;0.22;0.22;;;;;;;-1.69;100.00;96022.38;5015978;28;20544;-74
2022/12/12 09:11:09;;;;;;;0.20;0.20;;;;;;;-1.58;100.00;96028.94;5014370;28;20528;-73
2022/12/12 09:13:55;;;;;;;0.20;0.20;;;;;;;-1.66;100.00;96022.00;4998317;28;20124;-74
2022/12/12 09:16:41;;;;;;;0.20;0.20;;;;;;;-1.79;100.00;96022.66;5002585;28;20029;-70
2022/12/12 09:19:27;;;;;;;0.20;0.20;;;;;;;-1.84;100.00;96021.56;5013219;28;20520;-73
2022/12/12 09:22:12;;;;;;;0.20;0.20;;;;;;;-1.61;100.00;96016.19;5004135;28;20041;-73
2022/12/12 09:24:59;;;;;;;0.20;0.20;;;;;;;-1.65;100.00;96026.22;5013830;28;20218;-74
2022/12/12 09:27:44;;;;;;;0.20;0.20;;;;;;;-1.62;100.00;96018.00;5003380;28;20048;-74
2022/12/12 09:30:30;;;;;;;0.20;0.20;;;;;;;-1.65;100.00;96020.19;5012612;28;20048;-72
2022/12/12 09:33:20;;;;;;;0.20;0.20;;;;;;;-1.75;100.00;96023.09;4996192;28;20420;-72
2022/12/12 09:36:07;;;;;;;0.20;0.20;;;;;;;-1.68;100.00;96029.22;4989439;28;20381;-74
2022/12/12 09:38:53;;;;;;;0.20;0.20;;;;;;;-1.55;100.00;96034.66;5012358;28;20064;-73
2022/12/12 09:41:39;;;;;;;0.20;0.20;;;;;;;-1.68;100.00;96029.22;5014210;28;20029;-73
2022/12/12 09:44:25;;;;;;;0.20;0.20;;;;;;;-1.56;100.00;96038.25;5006971;28;20543;-73
2022/12/12 09:47:17;;;;;;;0.20;0.20;;;;;;;-1.28;100.00;96046.28;4955298;28;20048;-74
2022/12/12 09:50:21;;;;;;;0.20;0.20;;;;;;;-1.03;100.00;96033.63;5015073;28;20037;-73
2022/12/12 09:53:18;;;;;;;0.20;0.20;;;;;;;-1.51;100.00;96035.91;5012682;28;20527;-74
2022/12/12 09:56:43;;;;;;;0.20;0.20;;;;;;;-1.71;100.00;96040.09;5004088;28;20155;-73
2022/12/12 09:59:37;;;;;;;0.28;0.28;;;;;;;-1.77;100.00;96043.44;5012337;28;20520;-72
2022/12/12 10:02:59;;;;;;;0.20;0.20;;;;;;;-1.88;100.00;96039.44;5010371;28;20461;-72
2022/12/12 10:05:56;;;;;;;0.20;0.20;;;;;;;-1.77;100.00;96038.19;5006578;28;20550;-73
2022/12/12 10:09:05;;;;;;;0.20;0.20;;;;;;;-1.75;100.00;96041.44;4998766;28;20076;-71
2022/12/12 10:11:55;;;;;;;0.20;0.20;;;;;;;-1.62;100.00;96041.63;5014363;28;20043;-72
2022/12/12 10:15:03;;;;;;;0.20;0.20;;;;;;;-1.60;100.00;96038.81;5011771;28;20037;-69
2022/12/12 10:17:51;;;;;;;0.20;0.20;;;;;;;-1.73;100.00;96032.41;5016195;28;20044;-73
2022/12/12 10:20:50;;;;;;;0.20;0.20;;;;;;;-1.61;100.00;96043.25;5012165;28;20095;-73
2022/12/12 10:23:45;;;;;;;0.20;0.20;;;;;;;-1.44;100.00;96038.63;5012155;28;20042;-72
2022/12/12 10:26:31;;;;;;;0.20;0.20;;;;;;;-1.16;100.00;96036.94;5011131;28;20446;-72
2022/12/12 10:29:19;;;;;;;0.20;0.20;;;;;;;-0.99;100.00;96034.06;5012054;28;20037;-73
2022/12/12 10:32:18;;;;;;;0.20;0.20;;;;;;;-0.92;100.00;96030.50;5013094;28;20064;-73
2022/12/12 10:35:16;;;;;;;0.20;0.20;;;;;;;-0.93;100.00;96039.41;4996855;28;20080;-73
2022/12/12 10:38:27;;;;;;;0.20;0.20;;;;;;;-0.94;100.00;96026.41;5013686;28;20072;-70
2022/12/12 10:41:13;;;;;;;0.20;0.20;;;;;;;-0.74;100.00;96037.94;5013260;28;20037;-73
2022/12/12 10:44:17;;;;;;;0.20;0.20;;;;;;;-0.81;100.00;96037.06;4985431;28;20049;-70
2022/12/12 10:47:09;;;;;;;0.20;0.20;;;;;;;-0.48;100.00;96031.28;5006324;28;20068;-72
2022/12/12 10:50:25;;;;;;;0.20;0.20;;;;;;;-0.50;100.00;96018.34;5010602;28;20041;-71
2022/12/12 10:53:13;;;;;;;0.20;0.20;;;;;;;-0.29;100.00;96025.41;5011151;28;20069;-70
2022/12/12 10:56:04;;;;;;;0.20;0.20;;;;;;;-0.42;100.00;96023.47;5010881;28;20041;-73
2022/12/12 10:59:00;;;;;;;0.20;0.20;;;;;;;-0.59;100.00;96025.56;5011053;28;20397;-73
2022/12/12 11:01:56;;;;;;;0.20;0.20;;;;;;;-0.51;100.00;96021.97;5014283;28;20405;-68
2022/12/12 11:04:43;;;;;;;0.20;0.20;;;;;;;-0.48;100.00;96023.41;5012231;28;20451;-73
2022/12/12 11:07:34;;;;;;;0.10;0.10;;;;;;;-0.71;100.00;96036.75;5011600;28;20311;-73
2022/12/12 11:10:29;;;;;;;0.20;0.20;;;;;;;-0.66;100.00;96022.06;5010297;28;20045;-73
2022/12/12 11:13:16;;;;;;;0.20;0.20;;;;;;;-0.74;100.00;96024.00;5012092;28;20387;-72
2022/12/12 11:16:15;;;;;;;0.20;0.20;;;;;;;-0.86;100.00;96018.41;5014512;28;20703;-73
2022/12/12 11:19:16;;;;;;;0.20;0.20;;;;;;;-0.58;100.00;96007.97;5000886;28;20428;-72
2022/12/12 11:22:03;;;;;;;0.20;0.20;;;;;;;-0.79;100.00;96007.97;5014418;28;20135;-71
2022/12/12 11:24:50;;;;;;;0.20;0.20;;;;;;;-0.49;100.00;96012.09;4985937;28;20263;-73
2022/12/12 11:27:40;;;;;;;0.20;0.20;;;;;;;-0.20;100.00;96010.28;5012503;28;20047;-73
2022/12/12 11:30:44;;;;;;;0.20;0.20;;;;;;;-0.08;100.00;96006.94;5009834;28;20899;-73
2022/12/12 11:33:39;;;;;;;0.20;0.20;;;;;;;0.19;100.00;96001.81;4999527;28;20144;-74
2022/12/12 11:36:42;;;;;;;0.20;0.20;;;;;;;0.58;100.00;95993.28;5009718;28;20040;-73
2022/12/12 11:39:39;;;;;;;0.20;0.20;;;;;;;0.17;100.00;95999.38;5007278;28;20056;-72
2022/12/12 11:42:32;;;;;;;0.20;0.20;;;;;;;-0.30;100.00;95997.47;5012823;28;20549;-71
2022/12/12 11:45:21;;;;;;;0.20;0.20;;;;;;;-0.22;100.00;95999.16;5029597;28;20048;-73
2022/12/12 11:48:43;;;;;;;0.20;0.20;;;;;;;0.03;100.00;95986.34;5034012;28;20049;-74
2022/12/12 11:51:42;;;;;;;0.20;0.20;;;;;;;0.08;100.00;95984.78;4920932;28;20317;-72
2022/12/12 11:54:31;;;;;;;0.30;0.30;;;;;;;0.21;100.00;95990.06;5033621;28;20536;-73
2022/12/12 11:57:54;;;;;;;0.20;0.20;;;;;;;-0.13;100.00;95990.09;5034682;28;20048;-73
2022/12/12 12:01:10;;;;;;;0.20;0.20;;;;;;;0.05;100.00;95989.59;5029637;28;20371;-73
2022/12/12 12:04:29;;;;;;;0.20;0.20;;;;;;;-0.08;100.00;95991.16;5015966;28;20111;-72
2022/12/12 12:07:37;;;;;;;0.20;0.20;;;;;;;0.11;100.00;95979.09;5004803;28;20060;-73
2022/12/12 12:10:58;;;;;;;0.20;0.20;;;;;;;-0.26;100.00;95976.84;5002456;28;20271;-72
2022/12/12 12:14:11;;;;;;;0.20;0.20;;;;;;;-0.60;100.00;95970.56;5012504;28;20467;-73
2022/12/12 12:17:25;;;;;;;0.20;0.20;;;;;;;-0.31;100.00;95972.19;5015243;28;20037;-72
2022/12/12 12:20:39;;;;;;;0.20;0.20;;;;;;;0.15;100.00;95972.44;5005285;28;20075;-73
2022/12/12 12:23:51;;;;;;;0.30;0.30;;;;;;;0.23;100.00;95977.56;5014449;28;20046;-71
2022/12/12 12:27:00;;;;;;;0.20;0.20;;;;;;;-0.04;100.00;95970.53;5013761;28;20045;-74
2022/12/12 12:30:05;;;;;;;0.20;0.20;;;;;;;-0.22;100.00;95980.75;5013691;28;20041;-72
2022/12/12 12:33:19;;;;;;;0.20;0.20;;;;;;;-0.01;100.00;95973.56;5004143;28;20413;-73
2022/12/12 12:36:17;;;;;;;0.20;0.20;;;;;;;0.76;100.00;95974.28;5003199;28;20041;-74
2022/12/12 12:39:29;;;;;;;0.20;0.20;;;;;;;1.42;100.00;95976.22;5000961;28;20067;-74
2022/12/12 12:42:33;;;;;;;0.20;0.20;;;;;;;1.13;100.00;95982.69;5027210;28;20049;-74
2022/12/12 12:45:44;;;;;;;0.20;0.20;;;;;;;0.79;100.00;95979.19;5034687;28;20601;-73
2022/12/12 12:48:44;;;;;;;0.20;0.20;;;;;;;0.47;100.00;95980.69;5033832;28;20050;-73
2022/12/12 12:51:41;;;;;;;0.20;0.20;;;;;;;0.41;100.00;95984.09;5033098;28;20577;-73
2022/12/12 12:54:34;;;;;;;0.20;0.20;;;;;;;0.98;100.00;95974.94;5033451;28;20139;-73
2022/12/12 12:57:47;;;;;;;0.20;0.20;;;;;;;0.88;100.00;95975.34;5036749;28;20576;-72
2022/12/12 13:00:34;;;;;;;0.20;0.20;;;;;;;0.66;100.00;95966.78;5027768;28;20165;-74
2022/12/12 13:03:27;;;;;;;0.15;0.15;;;;;;;-0.16;100.00;95967.59;5015595;28;20254;-73
2022/12/12 13:06:39;;;;;;;0.20;0.20;;;;;;;-0.28;100.00;95959.47;5014023;28;20045;-71
2022/12/12 13:09:40;;;;;;;0.20;0.20;;;;;;;-0.06;100.00;95954.94;5010510;28;20037;-72
2022/12/12 13:12:33;;;;;;;0.20;0.20;;;;;;;-0.14;100.00;95951.66;5000534;28;20045;-71
2022/12/12 13:15:33;;;;;;;0.20;0.20;;;;;;;-0.13;100.00;95961.97;5011250;28;20029;-70
2022/12/12 13:18:19;;;;;;;0.20;0.20;;;;;;;-0.34;100.00;95959.41;5013103;28;20107;-72
2022/12/12 13:21:32;;;;;;;0.20;0.20;;;;;;;0.49;100.00;95954.97;5012361;28;20458;-74
2022/12/12 13:24:17;;;;;;;;;;;;;;;0.93;100.00;95951.00;5014276;28;20037;-72
2022/12/12 13:27:20;;;;;;;0.20;0.20;;;;;;;1.06;100.00;95966.84;5017378;28;20522;-71
2022/12/12 13:30:31;;;;;;;0.20;0.20;;;;;;;0.83;100.00;95965.38;5013481;28;20523;-74
2022/12/12 13:33:34;;;;;;;0.22;0.22;;;;;;;0.45;100.00;95966.91;5032618;28;20049;-73